Time;durP1;ratioP1;P1;durP2;ratioP2;P2;SDS_P1;SDS_P2;PMS_P1;PMS_P2;Temp;Humidity;BMP_temperature;BMP_pressure;BME280_temperature;BME280_humidity;BME280_pressure;Samples;Min_cycle;Max_cycle;Signal;HPM_P1;HPM_P2
2021/11/01 00:00:33;;;;;;;22.38;14.88;;;;;;;12.54;76.83;100357.94;5088807;28;20036;-20
2021/11/01 00:02:58;;;;;;;23.20;13.93;;;;;;;12.50;76.79;100362.91;5071124;28;20040;-20
2021/11/01 00:05:25;;;;;;;22.55;14.23;;;;;;;12.21;78.21;100351.94;5088766;28;20031;-21
2021/11/01 00:07:51;;;;;;;23.83;15.25;;;;;;;11.92;80.11;100371.38;5070456;28;20036;-20
2021/11/01 00:10:17;;;;;;;25.73;16.17;;;;;;;11.75;80.63;100371.06;5088663;28;20058;-19
2021/11/01 00:12:43;;;;;;;22.00;14.75;;;;;;;11.88;80.07;100370.94;5070603;28;20036;-20
2021/11/01 00:15:09;;;;;;;25.40;14.93;;;;;;;12.08;79.72;100367.31;5088757;28;20032;-19
2021/11/01 00:17:35;;;;;;;22.83;14.48;;;;;;;12.30;77.94;100363.16;5088596;28;20085;-20
2021/11/01 00:20:00;;;;;;;24.70;14.85;;;;;;;12.14;79.18;100361.09;5053562;28;20036;-20
2021/11/01 00:22:26;;;;;;;23.23;14.73;;;;;;;12.06;79.59;100363.00;5070617;28;20028;-20
2021/11/01 00:24:51;;;;;;;23.73;15.82;;;;;;;12.33;78.09;100354.69;5070378;28;20028;-20
2021/11/01 00:27:17;;;;;;;23.75;15.48;;;;;;;12.01;79.16;100341.47;5088304;28;20035;-19
2021/11/01 00:29:42;;;;;;;26.88;16.98;;;;;;;11.85;80.14;100342.00;5070187;28;20024;-20
2021/11/01 00:32:08;;;;;;;27.08;16.42;;;;;;;11.94;79.24;100340.69;5088298;28;20032;-20
2021/11/01 00:34:34;;;;;;;25.15;15.90;;;;;;;11.89;80.15;100355.75;5088310;28;20099;-20
2021/11/01 00:36:59;;;;;;;28.17;16.65;;;;;;;11.74;80.90;100351.53;5088064;28;20039;-20
2021/11/01 00:39:26;;;;;;;27.08;16.10;;;;;;;11.86;80.45;100348.97;5087946;28;20055;-20
2021/11/01 00:41:51;;;;;;;27.27;17.45;;;;;;;11.72;81.00;100339.44;5087972;28;20040;-19
2021/11/01 00:44:17;;;;;;;28.80;17.15;;;;;;;11.83;80.75;100336.06;5088375;28;20039;-21
2021/11/01 00:46:43;;;;;;;26.73;16.25;;;;;;;11.91;80.74;100338.47;5088538;28;20897;-20
2021/11/01 00:49:08;;;;;;;27.25;16.83;;;;;;;12.11;79.37;100324.06;5088168;28;20031;-20
2021/11/01 00:51:38;;;;;;;25.83;15.55;;;;;;;12.03;79.80;100317.16;5088106;28;20850;-20
2021/11/01 00:54:03;;;;;;;25.70;15.52;;;;;;;12.06;79.54;100330.09;5087990;28;20039;-20
2021/11/01 00:56:29;;;;;;;30.25;16.30;;;;;;;11.96;79.60;100309.22;5088229;28;20032;-20
2021/11/01 00:58:54;;;;;;;25.42;16.17;;;;;;;12.20;78.94;100325.44;5069987;28;20395;-19
2021/11/01 01:01:20;;;;;;;26.38;16.80;;;;;;;12.24;78.80;100326.63;5070003;28;20032;-20
2021/11/01 01:03:45;;;;;;;27.65;17.13;;;;;;;12.11;78.52;100306.19;5087729;28;20082;-20
2021/11/01 01:06:12;;;;;;;27.17;18.00;;;;;;;12.23;78.23;100324.97;5070059;28;20035;-20
2021/11/01 01:08:37;;;;;;;27.38;17.60;;;;;;;11.95;79.25;100315.63;5088365;28;20027;-20
2021/11/01 01:11:03;;;;;;;29.40;18.88;;;;;;;11.70;80.21;100304.94;5087825;28;20028;-20
2021/11/01 01:13:34;;;;;;;34.97;19.95;;;;;;;11.65;81.12;100308.28;5069949;28;20081;-19
2021/11/01 01:18:32;;;;;;;29.88;17.58;;;;;;;12.03;79.27;100312.66;5091813;28;20115;-20
2021/11/01 01:21:00;;;;;;;31.45;18.05;;;;;;;11.92;79.94;100324.06;5091836;28;20020;-20
2021/11/01 01:23:26;;;;;;;29.88;18.75;;;;;;;11.94;80.13;100322.00;5091886;28;20173;-20
2021/11/01 01:25:55;;;;;;;30.52;17.83;;;;;;;11.98;79.59;100307.16;5073387;28;20477;-21
2021/11/01 01:28:20;;;;;;;;;;;;;;;12.34;78.02;100321.56;5074640;28;20028;-20
2021/11/01 01:30:46;;;;;;;30.73;18.40;;;;;;;12.09;78.24;100312.78;5091540;28;20700;-20
2021/11/01 01:33:11;;;;;;;32.28;18.75;;;;;;;11.59;79.55;100293.13;5091555;28;20036;-21
2021/11/01 01:35:40;;;;;;;31.90;18.92;;;;;;;11.41;81.07;100298.41;5091573;28;20039;-19
2021/11/01 01:38:11;;;;;;;34.35;21.02;;;;;;;11.72;80.21;100310.88;5090980;28;20051;-20
2021/11/01 01:40:37;;;;;;;33.50;20.15;;;;;;;11.38;80.90;100297.00;5091793;28;20155;-20
2021/11/01 01:43:04;;;;;;;35.88;20.23;;;;;;;11.54;80.68;100310.84;5073914;28;20066;-20
2021/11/01 01:45:31;;;;;;;32.28;19.60;;;;;;;11.56;81.11;100308.75;5091538;28;20032;-19
2021/11/01 01:47:57;;;;;;;31.60;20.25;;;;;;;11.47;81.56;100310.91;5091438;28;20035;-19
2021/11/01 01:50:22;;;;;;;32.85;20.55;;;;;;;11.59;80.86;100313.69;5091339;28;20035;-20
2021/11/01 01:52:52;;;;;;;34.33;20.08;;;;;;;11.68;80.43;100307.00;5073120;28;20032;-20
2021/11/01 01:55:18;;;;;;;35.45;21.23;;;;;;;11.77;79.83;100284.31;5056733;28;20423;-20
2021/11/01 01:57:44;;;;;;;31.23;20.42;;;;;;;11.65;80.29;100310.94;5091032;28;20033;-20
2021/11/01 02:00:21;;;;;;;34.70;20.08;;;;;;;11.42;80.71;100292.03;5072971;28;20046;-20
2021/11/01 02:02:48;;;;;;;36.67;22.05;;;;;;;11.37;81.49;100297.22;5091145;28;20026;-20
2021/11/01 02:05:14;;;;;;;35.40;21.42;;;;;;;11.26;82.05;100278.19;5072951;28;20513;-20
2021/11/01 02:07:46;;;;;;;35.22;21.40;;;;;;;11.63;80.90;100296.97;5073053;28;20035;-20
2021/11/01 02:10:14;;;;;;;34.67;20.55;;;;;;;11.29;80.50;100255.59;5091081;28;20020;-20
2021/11/01 02:12:44;;;;;;;33.95;19.98;;;;;;;11.62;80.25;100281.16;5090806;28;20115;-19
2021/11/01 02:15:31;;;;;;;32.63;19.27;;;;;;;11.64;79.52;100277.22;5073322;28;20115;-20
2021/11/01 02:17:57;;;;;;;31.00;20.30;;;;;;;11.64;79.28;100289.78;5075459;28;20062;-20
2021/11/01 02:20:43;;;;;;;35.28;20.80;;;;;;;11.73;78.42;100283.13;5056086;28;20032;-19
2021/11/01 02:23:13;;;;;;;30.50;19.42;;;;;;;11.88;78.23;100284.63;5056844;28;20031;-20
2021/11/01 02:25:48;;;;;;;33.63;21.52;;;;;;;11.70;78.39;100278.22;5073084;28;20469;-20
2021/11/01 02:28:24;;;;;;;32.75;20.35;;;;;;;11.71;78.41;100284.38;5055742;28;20020;-20
2021/11/01 02:30:50;;;;;;;36.30;20.85;;;;;;;11.64;77.94;100274.56;5072481;28;20020;-20
2021/11/01 02:33:15;;;;;;;34.67;20.75;;;;;;;11.57;77.65;100281.03;5090839;28;20031;-20
2021/11/01 02:35:41;;;;;;;37.22;20.95;;;;;;;11.37;77.71;100278.53;5055249;28;20514;-23
2021/11/01 02:38:08;;;;;;;36.22;20.55;;;;;;;11.07;79.13;100289.84;5090199;28;20439;-20
2021/11/01 02:40:34;;;;;;;41.72;21.65;;;;;;;10.91;79.83;100291.22;5090268;28;20562;-20
2021/11/01 02:43:00;;;;;;;34.97;20.85;;;;;;;10.95;79.58;100286.22;5090327;28;20085;-20
2021/11/01 02:45:26;;;;;;;37.22;22.17;;;;;;;11.19;79.05;100274.75;5072308;28;20024;-20
2021/11/01 02:47:52;;;;;;;38.05;21.52;;;;;;;11.15;78.50;100267.41;5090181;28;20071;-20
2021/11/01 02:50:18;;;;;;;38.80;22.75;;;;;;;10.99;79.88;100266.09;5090241;28;20028;-22
2021/11/01 02:52:43;;;;;;;33.63;21.20;;;;;;;11.21;79.34;100272.69;5072283;28;20130;-20
2021/11/01 02:55:11;;;;;;;37.60;22.55;;;;;;;11.15;78.90;100281.56;5090063;28;20733;-20
2021/11/01 02:57:36;;;;;;;37.58;22.63;;;;;;;11.13;78.80;100246.25;5072615;28;20032;-20
2021/11/01 03:00:03;;;;;;;37.88;22.08;;;;;;;11.17;79.23;100268.81;5071632;28;20490;-20
2021/11/01 03:02:28;;;;;;;39.60;23.40;;;;;;;11.20;79.27;100268.41;5089912;28;20036;-20
2021/11/01 03:04:54;;;;;;;38.83;22.73;;;;;;;11.51;78.16;100277.38;5055134;28;20039;-20
2021/11/01 03:07:19;;;;;;;35.53;22.70;;;;;;;11.53;77.95;100277.97;5089856;28;20031;-20
2021/11/01 03:09:45;;;;;;;37.38;22.30;;;;;;;11.49;78.13;100273.28;5071394;28;20458;-20
2021/11/01 03:12:12;;;;;;;41.70;22.95;;;;;;;11.38;78.77;100272.13;5089862;28;20035;-20
2021/11/01 03:14:43;;;;;;;42.33;23.17;;;;;;;11.53;78.13;100271.81;5055200;28;20034;-19
2021/11/01 03:17:10;;;;;;;39.97;22.33;;;;;;;11.39;78.34;100249.75;5072468;28;20508;-20
2021/11/01 03:19:38;;;;;;;39.03;23.52;;;;;;;10.98;79.88;100259.13;5054835;28;20132;-20
2021/11/01 03:22:04;;;;;;;39.45;22.52;;;;;;;11.22;79.80;100255.66;5089578;28;20111;-20
2021/11/01 03:24:30;;;;;;;38.85;22.98;;;;;;;11.32;79.35;100254.31;5054652;28;20036;-20
2021/11/01 03:26:56;;;;;;;40.45;23.95;;;;;;;11.04;80.27;100248.41;5071356;28;20035;-20
2021/11/01 03:29:21;;;;;;;42.30;24.05;;;;;;;10.74;81.18;100231.38;5071275;28;20039;-20
2021/11/01 03:31:47;;;;;;;44.92;24.75;;;;;;;11.04;80.70;100243.06;5054131;28;20027;-20
2021/11/01 03:34:13;;;;;;;39.97;25.48;;;;;;;10.83;81.55;100246.91;5089317;28;20385;-20
2021/11/01 03:36:38;;;;;;;40.78;24.55;;;;;;;10.87;80.65;100239.31;5054710;28;20248;-20
2021/11/01 03:39:06;;;;;;;40.03;23.70;;;;;;;10.89;80.71;100252.41;5088471;28;20079;-19
2021/11/01 03:41:32;;;;;;;41.17;23.80;;;;;;;10.82;80.69;100245.25;5089189;28;20028;-19
2021/11/01 03:44:02;;;;;;;39.65;23.27;;;;;;;10.44;81.85;100227.47;5054693;28;20040;-20
2021/11/01 03:46:38;;;;;;;41.13;25.20;;;;;;;10.41;82.74;100229.75;5071430;28;20464;-21
2021/11/01 03:49:08;;;;;;;44.53;26.25;;;;;;;10.40;83.20;100239.59;5072880;28;20036;-19
2021/11/01 03:54:06;;;;;;;45.88;27.08;;;;;;;10.47;83.25;100230.75;5055690;28;20036;-21
2021/11/01 03:56:32;;;;;;;50.38;27.83;;;;;;;10.77;81.45;100226.44;5054270;28;20077;-20
2021/11/01 03:58:58;;;;;;;48.47;28.92;;;;;;;10.93;80.98;100224.25;5054206;28;20063;-19
2021/11/01 04:01:23;;;;;;;51.17;27.83;;;;;;;10.90;80.25;100219.38;5054117;28;20035;-20
2021/11/01 04:03:49;;;;;;;48.65;27.98;;;;;;;10.76;80.30;100192.78;5070414;28;20028;-20
2021/11/01 04:06:17;;;;;;;46.65;29.15;;;;;;;11.09;79.84;100218.38;5071127;28;20032;-21
2021/11/01 04:08:43;;;;;;;43.60;26.50;;;;;;;10.97;80.87;100217.44;5071091;28;20122;-19
2021/11/01 04:11:10;;;;;;;44.63;25.40;;;;;;;11.04;80.31;100204.88;5088750;28;20545;-20
2021/11/01 04:13:36;;;;;;;45.83;26.30;;;;;;;10.85;80.68;100196.81;5088670;28;20491;-22
2021/11/01 04:16:10;;;;;;;42.08;24.98;;;;;;;10.89;80.93;100196.38;5070829;28;20043;-19
2021/11/01 04:19:02;;;;;;;47.05;26.27;;;;;;;10.75;81.52;100191.16;5088675;28;20050;-20
2021/11/01 04:21:21;;;;;;;44.33;25.48;;;;;;;10.76;81.62;100198.13;5087660;28;20043;-20
2021/11/01 04:23:47;;;;;;;49.65;27.40;;;;;;;10.71;81.98;100205.16;5088253;28;20032;-21
2021/11/01 04:26:17;;;;;;;47.90;28.02;;;;;;;10.94;81.48;100205.38;5088588;28;20026;-20
2021/11/01 04:28:43;;;;;;;44.50;26.00;;;;;;;10.92;81.18;100206.63;5071016;28;20085;-21
2021/11/01 04:31:12;;;;;;;46.22;27.88;;;;;;;11.08;80.33;100195.41;5087879;28;20024;-20
2021/11/01 04:33:39;;;;;;;51.85;27.77;;;;;;;10.85;78.56;100170.16;5087066;28;20487;-21
2021/11/01 04:36:04;;;;;;;51.47;28.98;;;;;;;10.83;79.29;100190.91;5053693;28;20042;-19
2021/11/01 04:41:18;;;;;;;51.10;30.23;;;;;;;10.76;78.43;100168.78;5088483;28;20563;-19
2021/11/01 04:54:21;;;;;;;55.08;30.92;;;;;;;10.38;79.51;100192.81;5092452;28;20519;-21
2021/11/01 04:56:47;;;;;;;53.90;31.77;;;;;;;10.35;79.01;100186.09;5092356;28;20032;-20
2021/11/01 04:59:12;;;;;;;53.58;31.08;;;;;;;10.53;78.55;100189.88;5057536;28;20480;-20
2021/11/01 05:01:44;;;;;;;53.58;31.55;;;;;;;10.35;79.89;100198.59;5074223;28;20063;-20
2021/11/01 05:04:14;;;;;;;54.88;34.35;;;;;;;10.39;79.54;100189.94;5092291;28;20082;-20
2021/11/01 05:06:50;;;;;;;56.13;31.77;;;;;;;10.41;79.66;100203.88;5092243;28;20484;-19
2021/11/01 05:09:21;;;;;;;55.95;32.72;;;;;;;10.28;80.39;100195.94;5092140;28;20441;-20
2021/11/01 05:14:21;;;;;;;51.13;30.85;;;;;;;10.35;81.05;100210.06;5092134;28;20032;-20
2021/11/01 05:17:01;;;;;;;;;;;;;;;10.68;79.57;100203.72;5074523;28;20028;-20
2021/11/01 05:19:30;;;;;;;60.17;32.63;;;;;;;10.51;80.35;100210.63;5092081;28;19908;-20
2021/11/01 05:22:06;;;;;;;74.47;38.90;;;;;;;10.64;79.49;100211.34;5091738;28;20035;-19
2021/11/01 05:29:32;;;;;;;64.57;37.60;;;;;;;9.95;82.65;100204.09;5092114;28;20036;-21
2021/11/01 05:32:03;;;;;;;60.08;33.83;;;;;;;9.78;83.25;100198.41;5091572;28;20071;-20
2021/11/01 05:34:29;;;;;;;61.28;33.45;;;;;;;10.03;83.08;100210.00;5091625;28;20398;-19
2021/11/01 05:36:54;;;;;;;55.92;32.53;;;;;;;10.09;81.32;100202.19;5091341;28;20039;-20
2021/11/01 05:39:20;;;;;;;55.65;32.35;;;;;;;10.01;81.97;100214.72;5091594;28;20052;-21
2021/11/01 05:41:45;;;;;;;55.92;32.00;;;;;;;10.17;81.50;100216.06;5091473;28;20028;-20
2021/11/01 05:44:11;;;;;;;57.65;31.88;;;;;;;9.96;81.48;100219.06;5091823;28;20043;-20
2021/11/01 05:46:39;;;;;;;58.33;32.05;;;;;;;9.42;82.60;100183.78;5091572;28;20024;-20
2021/11/01 05:49:05;;;;;;;59.70;31.90;;;;;;;9.49;83.33;100197.06;5073519;28;20036;-20
2021/11/01 05:51:33;;;;;;;58.35;32.55;;;;;;;9.49;82.55;100173.13;5072761;28;20071;-20
2021/11/01 05:54:02;;;;;;;56.10;33.22;;;;;;;9.70;82.56;100219.94;5091253;28;20077;-20
2021/11/01 06:02:10;;;;;;;59.53;35.95;;;;;;;9.62;82.95;100219.16;5090988;28;20044;-20
2021/11/01 06:04:17;;;;;;;63.63;36.28;;;;;;;9.70;82.43;100219.94;5090373;28;20047;-20
2021/11/01 06:09:54;;;;;;;58.90;35.38;;;;;;;9.28;83.63;100196.28;5091207;28;20035;-22
2021/11/01 06:14:56;;;;;;;56.25;33.47;;;;;;;9.40;84.62;100220.44;5090901;28;20034;-20
2021/11/01 06:17:22;;;;;;;61.25;33.13;;;;;;;9.39;84.62;100218.78;5090769;28;20499;-20
2021/11/01 06:19:47;;;;;;;58.85;32.15;;;;;;;9.43;84.20;100220.81;5090582;28;20037;-20
2021/11/01 06:22:14;;;;;;;56.45;33.80;;;;;;;9.49;84.02;100219.19;5091058;28;20523;-20
2021/11/01 06:27:15;;;;;;;58.42;34.00;;;;;;;9.86;82.30;100217.63;5090833;28;20032;-20
2021/11/01 06:29:50;;;;;;;56.85;32.13;;;;;;;9.91;82.72;100230.34;5090535;28;20032;-20
2021/11/01 06:32:39;;;;;;;64.78;34.75;;;;;;;9.82;82.65;100227.06;5090588;28;20027;-20
2021/11/01 06:43:08;;;;;;;56.33;32.38;;;;;;;10.48;80.55;100225.16;5090898;28;20973;-20
2021/11/01 07:15:27;;;;;;;53.88;29.35;;;;;;;11.06;77.60;100203.63;5089587;28;20047;-20
2021/11/01 08:23:44;;;;;;;51.30;30.15;;;;;;;11.60;76.43;100171.06;5073359;28;20723;-20
2021/11/01 08:45:07;;;;;;;50.85;26.60;;;;;;;12.66;72.66;100131.38;5088293;28;20407;-19
2021/11/01 08:50:31;;;;;;;50.22;28.55;;;;;;;13.28;70.17;100163.06;5087996;28;20036;-20
2021/11/01 09:19:54;;;;;;;41.78;25.83;;;;;;;13.96;67.98;100124.00;5087656;28;20131;-20
2021/11/01 09:27:37;;;;;;;39.42;24.27;;;;;;;14.33;66.26;100114.75;5087846;28;20069;-20
2021/11/01 09:40:57;;;;;;;39.30;25.20;;;;;;;15.12;64.07;100095.84;5091726;28;20096;-21
2021/11/01 09:43:23;;;;;;;41.75;24.70;;;;;;;15.12;63.03;100082.41;5091434;28;20040;-20
2021/11/01 09:45:53;;;;;;;38.92;25.20;;;;;;;15.40;63.71;100085.97;5073191;28;20609;-20
2021/11/01 09:48:18;;;;;;;36.92;23.02;;;;;;;15.24;62.94;100084.97;5073364;28;20159;-21
2021/11/01 09:50:44;;;;;;;40.03;25.08;;;;;;;15.34;63.85;100089.66;5091756;28;20528;-20
2021/11/01 09:53:18;;;;;;;37.00;23.55;;;;;;;14.96;64.28;100062.59;5091255;28;20063;-20
2021/11/01 09:55:49;;;;;;;41.67;24.27;;;;;;;15.24;62.31;100067.00;5091244;28;20036;-20
2021/11/01 10:01:00;;;;;;;39.47;23.80;;;;;;;15.30;62.57;100037.50;5091560;28;20051;-20
2021/11/01 10:03:33;;;;;;;43.55;25.45;;;;;;;15.62;61.84;100054.53;5072842;28;20432;-20
2021/11/01 10:05:59;;;;;;;32.97;21.60;;;;;;;15.77;60.29;100059.31;5090697;28;20494;-20
2021/11/01 10:08:26;;;;;;;35.40;21.83;;;;;;;16.02;58.12;100056.03;5090193;28;20475;-20
2021/11/01 10:10:51;;;;;;;35.53;20.83;;;;;;;16.00;58.78;100055.47;5072272;28;20384;-20
2021/11/01 10:13:17;;;;;;;35.72;21.77;;;;;;;16.42;57.63;100049.34;5091035;28;20501;-20
2021/11/01 10:18:28;;;;;;;36.38;22.73;;;;;;;17.43;55.54;100019.75;5091164;28;20089;-19
2021/11/01 10:20:59;;;;;;;34.92;23.48;;;;;;;17.67;53.72;100022.75;5090786;28;20032;-19
2021/11/01 10:23:28;;;;;;;35.05;22.85;;;;;;;17.91;54.88;100041.97;5091075;28;20038;-20
2021/11/01 10:26:05;;;;;;;30.55;21.05;;;;;;;18.03;53.46;100014.75;5090706;28;20024;-20
2021/11/01 10:28:31;;;;;;;34.42;21.52;;;;;;;17.88;53.48;100026.34;5090567;28;20060;-19
2021/11/01 10:31:10;;;;;;;31.33;21.17;;;;;;;18.27;52.13;100001.53;5090567;28;20393;-20
2021/11/01 10:33:42;;;;;;;31.83;21.42;;;;;;;18.46;51.78;100002.56;5090333;28;20442;-20
2021/11/01 10:36:08;;;;;;;27.75;19.88;;;;;;;18.47;51.15;99996.09;5090459;28;20043;-22
2021/11/01 10:38:40;;;;;;;30.73;21.60;;;;;;;19.18;49.65;100001.56;5090666;28;20052;-20
2021/11/01 10:44:03;;;;;;;29.83;21.42;;;;;;;19.06;50.87;99993.75;5073265;28;20032;-19
2021/11/01 11:14:03;;;;;;;30.27;20.23;;;;;;;18.97;51.00;99938.69;5089513;28;20032;-20
2021/11/01 11:21:42;;;;;;;25.88;18.65;;;;;;;18.81;49.84;99949.56;5056612;28;20036;-20
2021/11/01 11:29:53;;;;;;;27.20;20.10;;;;;;;19.61;48.94;99940.44;5089579;28;20039;-20
2021/11/01 11:38:25;;;;;;;29.95;20.63;;;;;;;20.22;48.00;99949.16;5071055;28;20032;-20
2021/11/01 11:43:46;;;;;;;26.83;19.83;;;;;;;20.75;45.37;99929.41;5089467;28;20036;-20
2021/11/01 11:49:03;;;;;;;29.63;21.08;;;;;;;20.06;48.84;99935.78;5074172;28;20097;-20
2021/11/01 11:51:29;;;;;;;24.40;17.52;;;;;;;19.96;47.10;99930.47;5088934;28;20042;-20
2021/11/01 11:53:59;;;;;;;26.75;18.83;;;;;;;19.77;47.63;99916.03;5088879;28;20035;-19
2021/11/01 11:56:35;;;;;;;27.65;19.73;;;;;;;19.88;48.00;99928.38;5089035;28;20034;-19
2021/11/01 11:59:02;;;;;;;27.45;19.60;;;;;;;20.55;46.47;99925.00;5088637;28;20081;-19
2021/11/01 12:01:27;;;;;;;28.27;20.50;;;;;;;21.29;45.31;99928.13;5088617;28;20036;-19
2021/11/01 12:03:54;;;;;;;27.42;19.58;;;;;;;21.21;45.21;99910.63;5088614;28;20349;-20
2021/11/01 12:06:22;;;;;;;27.88;20.15;;;;;;;20.64;45.52;99907.03;5088737;28;20084;-19
2021/11/01 12:08:55;;;;;;;20.00;13.38;;;;;;;19.39;47.32;99902.19;5088641;28;20441;-20
2021/11/01 12:11:39;;;;;;;18.98;13.73;;;;;;;19.18;47.43;99915.84;5071833;28;20081;-21
2021/11/01 12:14:22;;;;;;;19.63;13.95;;;;;;;18.52;49.78;99902.66;5088618;28;20119;-20
2021/11/01 12:19:47;;;;;;;20.75;16.25;;;;;;;20.45;46.05;99904.22;5053814;28;20051;-20
2021/11/01 12:22:24;;;;;;;24.65;16.05;;;;;;;20.07;47.46;99893.28;5088621;28;20039;-20
2021/11/01 12:24:51;;;;;;;25.15;17.17;;;;;;;20.15;46.25;99886.44;5070914;28;20078;-20
2021/11/01 12:27:18;;;;;;;22.40;14.35;;;;;;;20.83;43.18;99901.66;5088055;28;20161;-20
2021/11/01 12:29:43;;;;;;;23.02;17.45;;;;;;;21.22;43.44;99893.22;5088062;28;20082;-20
2021/11/01 12:32:12;;;;;;;22.05;16.13;;;;;;;20.83;44.11;99888.91;5088492;28;20488;-20
2021/11/01 12:37:29;;;;;;;25.27;19.13;;;;;;;21.98;42.93;99882.25;5088186;28;20035;-19
2021/11/01 12:40:10;;;;;;;21.10;14.57;;;;;;;21.48;42.73;99902.94;5070433;28;20035;-20
2021/11/01 12:58:16;;;;;;;20.40;13.57;;;;;;;22.37;40.89;99883.75;5073002;28;20047;-20
2021/11/01 13:00:43;;;;;;;21.17;15.10;;;;;;;22.63;40.33;99883.19;5087912;28;20089;-20
2021/11/01 13:03:12;;;;;;;18.53;14.43;;;;;;;22.42;40.34;99885.53;5088616;28;20062;-20
2021/11/01 13:05:43;;;;;;;18.90;14.20;;;;;;;22.89;39.08;99886.19;5087814;28;20036;-19
2021/11/01 13:08:11;;;;;;;18.08;13.70;;;;;;;23.02;38.62;99888.09;5088473;28;20123;-20
2021/11/01 13:10:47;;;;;;;18.95;14.20;;;;;;;23.80;37.19;99871.56;5070114;28;20461;-20
2021/11/01 13:13:42;;;;;;;21.48;14.90;;;;;;;24.85;35.71;99878.19;5091333;28;20086;-19
2021/11/01 13:19:16;;;;;;;18.80;14.77;;;;;;;23.60;37.58;99883.75;5092375;28;20602;-19
2021/11/01 13:21:53;;;;;;;22.88;16.38;;;;;;;23.56;38.06;99879.22;5092020;28;20040;-20
2021/11/01 13:24:21;;;;;;;21.02;15.27;;;;;;;23.44;37.68;99880.59;5091875;28;20079;-19
2021/11/01 13:37:25;;;;;;;19.80;15.40;;;;;;;25.33;34.77;99872.94;5073571;28;20040;-20
2021/11/01 13:39:59;;;;;;;19.27;14.68;;;;;;;25.14;34.53;99868.56;5091654;28;20036;-19
2021/11/01 13:42:24;;;;;;;26.63;16.95;;;;;;;25.38;35.19;99878.25;5091663;28;20119;-20
2021/11/01 13:44:50;;;;;;;20.17;15.85;;;;;;;25.39;34.87;99879.84;5091409;28;20039;-20
2021/11/01 13:47:17;;;;;;;19.38;15.82;;;;;;;25.95;33.21;99864.31;5073368;28;20032;-20
2021/11/01 13:49:45;;;;;;;19.63;15.02;;;;;;;24.44;35.88;99854.03;5091365;28;20043;-20
2021/11/01 13:54:59;;;;;;;24.05;16.08;;;;;;;25.02;35.48;99860.22;5091379;28;20044;-19
2021/11/01 13:57:27;;;;;;;20.45;15.73;;;;;;;25.93;33.49;99863.84;5091461;28;20047;-20
2021/11/01 14:16:28;;;;;;;22.75;16.92;;;;;;;22.59;39.41;99858.53;5008371;28;20046;-19
2021/11/01 14:27:21;;;;;;;23.98;17.95;;;;;;;18.90;49.58;99832.78;5090761;28;20039;-20
2021/11/01 15:15:44;;;;;;;197.50;101.07;;;;;;;15.02;64.39;99837.91;5074592;28;20043;-20
2021/11/01 15:21:11;;;;;;;202.43;103.22;;;;;;;14.63;66.15;99840.72;5089674;28;20043;-20
2021/11/01 15:28:54;;;;;;;144.23;80.65;;;;;;;14.26;68.44;99833.25;5089490;28;20039;-20
2021/11/01 16:19:44;;;;;;;71.07;38.65;;;;;;;12.81;74.83;99864.16;5071304;28;20032;-20
2021/11/01 16:22:10;;;;;;;61.35;35.70;;;;;;;12.79;74.71;99884.97;5088577;28;20114;-20
2021/11/01 16:24:36;;;;;;;53.92;32.28;;;;;;;12.53;74.90;99854.22;5088622;28;20055;-20
2021/11/01 16:27:02;;;;;;;53.95;35.40;;;;;;;12.55;75.15;99884.22;5088453;28;20124;-20
2021/11/01 16:29:49;;;;;;;50.72;28.95;;;;;;;12.59;75.15;99884.56;5088393;28;20032;-19
2021/11/01 16:32:41;;;;;;;57.00;31.92;;;;;;;12.46;75.37;99870.41;5088418;28;20032;-19
2021/11/01 16:35:03;;;;;;;56.15;30.20;;;;;;;12.45;75.66;99884.81;5072540;28;20060;-19
2021/11/01 16:40:06;;;;;;;69.13;34.83;;;;;;;12.28;76.39;99891.97;5070948;28;20085;-19
2021/11/01 16:42:33;;;;;;;60.88;31.73;;;;;;;12.37;75.61;99887.88;5070335;28;20115;-20
2021/11/01 16:45:08;;;;;;;55.10;31.08;;;;;;;12.36;76.03;99891.59;5088366;28;20028;-21
2021/11/01 16:47:34;;;;;;;54.47;31.38;;;;;;;12.09;76.68;99877.09;5088056;28;20506;-19
2021/11/01 16:49:59;;;;;;;54.05;31.02;;;;;;;12.06;77.47;99891.72;5087702;28;20028;-21
2021/11/01 16:52:25;;;;;;;49.20;28.58;;;;;;;11.89;77.79;99896.97;5087907;28;20028;-20
2021/11/01 16:54:55;;;;;;;51.70;28.58;;;;;;;11.95;77.78;99884.50;5088160;28;20480;-20
2021/11/01 16:57:23;;;;;;;48.25;27.98;;;;;;;12.02;76.82;99886.03;5088079;28;20038;-20
2021/11/01 17:00:10;;;;;;;46.22;26.67;;;;;;;11.98;77.52;99900.09;5087933;28;20034;-20
2021/11/01 17:02:50;;;;;;;54.00;28.63;;;;;;;11.95;77.58;99900.53;5088007;28;20042;-20
2021/11/01 17:21:36;;;;;;;59.40;35.38;;;;;;;11.54;78.40;99868.28;5088343;28;20055;-21
2021/11/01 17:38:06;;;;;;;56.38;34.83;;;;;;;11.54;78.11;99895.00;5058332;28;20036;-20
2021/11/01 18:51:11;;;;;;;75.45;40.58;;;;;;;11.71;79.27;99891.66;5090466;28;19919;-20
2021/11/01 18:53:38;;;;;;;91.93;48.25;;;;;;;11.60;80.27;99894.09;5090146;28;20036;-20
2021/11/01 18:56:08;;;;;;;96.85;47.42;;;;;;;11.85;79.09;99896.56;5090191;28;20028;-19
2021/11/01 18:58:36;;;;;;;112.60;51.35;;;;;;;12.00;78.68;99898.81;5090137;28;20028;-20
2021/11/01 19:01:01;;;;;;;62.13;33.83;;;;;;;11.62;79.46;99881.31;5072160;28;20059;-19
2021/11/01 19:03:30;;;;;;;99.60;47.00;;;;;;;11.82;80.03;99904.22;5090121;28;20074;-20
2021/11/01 19:08:47;;;;;;;109.67;50.37;;;;;;;11.46;80.60;99887.31;5089645;28;20028;-20
2021/11/01 20:06:00;;;;;;;54.85;34.50;;;;;;;11.31;83.34;99910.97;5070401;28;20035;-21
2021/11/01 20:13:22;;;;;;;44.63;27.27;;;;;;;11.60;82.71;99925.31;5070788;28;20024;-21
2021/11/01 21:27:08;;;;;;;55.00;25.10;;;;;;;11.50;86.90;99893.03;5050314;28;20592;-21
2021/11/01 21:29:34;;;;;;;52.92;22.75;;;;;;;11.54;87.07;99889.66;5067904;28;20028;-20
2021/11/01 21:32:00;;;;;;;50.75;22.52;;;;;;;11.41;87.61;99882.66;5067726;28;20139;-20
2021/11/01 21:34:41;;;;;;;53.13;25.20;;;;;;;11.51;88.06;99890.13;5071090;28;20111;-21
2021/11/01 21:37:07;;;;;;;72.93;22.67;;;;;;;11.51;87.91;99868.78;5041451;28;20032;-19
2021/11/01 21:39:33;;;;;;;51.92;21.85;;;;;;;11.80;86.86;99887.63;5053330;28;20531;-20
2021/11/01 21:41:58;;;;;;;52.40;22.60;;;;;;;12.09;85.36;99885.09;5071129;28;20028;-19
2021/11/01 21:44:25;;;;;;;52.03;22.27;;;;;;;11.96;84.92;99873.59;5071332;28;20041;-20
2021/11/01 21:46:50;;;;;;;49.90;21.58;;;;;;;12.05;85.78;99887.41;5071239;28;20625;-20
2021/11/01 21:49:16;;;;;;;55.38;21.63;;;;;;;11.88;85.53;99873.09;5071283;28;20036;-21
2021/11/01 21:51:43;;;;;;;51.88;20.27;;;;;;;12.03;85.38;99882.31;5036420;28;20090;-23
2021/11/01 21:54:52;;;;;;;50.97;21.80;;;;;;;11.59;87.75;99876.44;5071035;28;20076;-19
2021/11/01 21:57:10;;;;;;;47.47;21.08;;;;;;;11.57;88.28;99867.84;5048287;28;20189;-20
2021/11/01 22:19:17;;;;;;;134.77;33.85;;;;;;;10.84;92.32;99832.38;5055725;28;20059;-20
2021/11/01 22:24:16;;;;;;;122.75;36.13;;;;;;;11.07;92.46;99830.81;5048225;28;20028;-21
2021/11/01 22:38:16;;;;;;;140.37;36.57;;;;;;;11.53;88.67;99839.16;5074165;28;20028;-19
2021/11/01 22:55:48;;;;;;;137.05;42.28;;;;;;;11.18;88.19;99839.91;5090273;28;20109;-20
2021/11/01 22:58:14;;;;;;;140.93;39.53;;;;;;;10.59;90.71;99835.16;5071917;28;20419;-20
2021/11/01 23:00:55;;;;;;;152.05;39.05;;;;;;;10.33;92.53;99820.28;5090074;28;20043;-20
2021/11/01 23:32:51;;;;;;;157.23;46.17;;;;;;;10.05;89.76;99775.47;5089635;28;20058;-19
2021/11/01 23:35:17;;;;;;;135.75;43.50;;;;;;;9.98;91.61;99769.44;5071310;28;20035;-19
2021/11/01 23:37:42;;;;;;;176.98;43.42;;;;;;;10.07;90.88;99784.06;5089126;28;20109;-21
2021/11/01 23:40:08;;;;;;;144.90;41.97;;;;;;;10.39;89.67;99787.41;5071426;28;20032;-21
2021/11/01 23:42:33;;;;;;;170.93;38.72;;;;;;;10.59;87.53;99792.50;5089690;28;20052;-21
2021/11/01 23:44:59;;;;;;;183.68;40.22;;;;;;;10.98;86.86;99789.50;5089662;28;20043;-20